Time;durP1;ratioP1;P1;durP2;ratioP2;P2;SDS_P1;SDS_P2;PMS_P1;PMS_P2;Temp;Humidity;BMP_temperature;BMP_pressure;BME280_temperature;BME280_humidity;BME280_pressure;Samples;Min_cycle;Max_cycle;Signal;HPM_P1;HPM_P2
2022/10/23 00:00:23;;;;;;;11.13;3.70;;;;;;;;;;631306;23;1236;-66
2022/10/23 00:01:33;;;;;;;8.18;2.97;;;;;;;;;;627048;23;1177;-66
2022/10/23 00:02:41;;;;;;;10.23;3.10;;;;;;;;;;627661;23;1448;-66
2022/10/23 00:03:50;;;;;;;11.13;3.45;;;;;;;;;;626373;23;971;-66
2022/10/23 00:04:59;;;;;;;9.52;3.20;;;;;;;;;;625211;23;923;-66
2022/10/23 00:06:08;;;;;;;13.18;3.20;;;;;;;;;;623608;23;1237;-66
2022/10/23 00:07:16;;;;;;;11.30;3.40;;;;;;;;;;627342;23;2271;-66
2022/10/23 00:08:24;;;;;;;14.30;3.78;;;;;;;;;;627110;23;1228;-66
2022/10/23 00:09:32;;;;;;;11.48;3.90;;;;;;;;;;628317;23;1265;-66
2022/10/23 00:10:41;;;;;;;10.90;3.47;;;;;;;;;;627810;23;1570;-66
2022/10/23 00:11:50;;;;;;;10.15;3.38;;;;;;;;;;630950;23;958;-66
2022/10/23 00:12:58;;;;;;;12.02;3.47;;;;;;;;;;630973;23;1259;-65
2022/10/23 00:14:06;;;;;;;9.93;3.17;;;;;;;;;;627308;23;1367;-65
2022/10/23 00:15:17;;;;;;;8.90;3.42;;;;;;;;;;627947;23;1236;-66
2022/10/23 00:16:26;;;;;;;12.93;3.28;;;;;;;;;;630245;23;1171;-66
2022/10/23 00:17:35;;;;;;;11.30;3.50;;;;;;;;;;630696;23;965;-66
2022/10/23 00:18:44;;;;;;;10.00;3.33;;;;;;;;;;633793;23;1276;-66
2022/10/23 00:19:52;;;;;;;12.88;3.60;;;;;;;;;;633404;23;1279;-66
2022/10/23 00:21:00;;;;;;;10.40;3.38;;;;;;;;;;630203;23;1078;-66
2022/10/23 00:22:10;;;;;;;7.82;3.40;;;;;;;;;;627294;23;1462;-66
2022/10/23 00:23:17;;;;;;;10.77;3.45;;;;;;;;;;630775;23;1157;-66
2022/10/23 00:24:26;;;;;;;10.68;3.50;;;;;;;;;;631130;23;1339;-66
2022/10/23 00:25:33;;;;;;;11.52;3.70;;;;;;;;;;627592;23;1558;-66
2022/10/23 00:26:41;;;;;;;14.07;3.78;;;;;;;;;;631174;23;1034;-65
2022/10/23 00:27:49;;;;;;;15.30;4.38;;;;;;;;;;630642;23;1267;-66
2022/10/23 00:28:57;;;;;;;11.77;4.15;;;;;;;;;;626949;23;862;-66
2022/10/23 00:30:05;;;;;;;15.93;8.75;;;;;;;;;;624015;23;851;-66
2022/10/23 00:31:13;;;;;;;18.17;6.88;;;;;;;;;;627873;23;1411;-66
2022/10/23 00:32:21;;;;;;;12.90;7.53;;;;;;;;;;630799;23;871;-66
2022/10/23 00:33:29;;;;;;;23.05;13.63;;;;;;;;;;631007;23;1311;-67
2022/10/23 00:34:38;;;;;;;25.13;22.42;;;;;;;;;;627381;23;1264;-66
2022/10/23 00:35:45;;;;;;;16.73;12.25;;;;;;;;;;631414;23;968;-66
2022/10/23 00:36:55;;;;;;;18.77;7.65;;;;;;;;;;630955;23;1354;-65
2022/10/23 00:38:03;;;;;;;15.77;10.75;;;;;;;;;;627846;23;1593;-65
2022/10/23 00:39:11;;;;;;;20.17;10.75;;;;;;;;;;627602;23;1402;-65
2022/10/23 00:40:19;;;;;;;16.15;10.13;;;;;;;;;;630289;23;882;-65
2022/10/23 00:41:28;;;;;;;11.80;7.25;;;;;;;;;;631150;23;824;-65
2022/10/23 00:42:36;;;;;;;15.45;6.78;;;;;;;;;;630690;23;816;-65
2022/10/23 00:43:59;;;;;;;11.35;7.53;;;;;;;;;;627291;23;1309;-65
2022/10/23 00:45:13;;;;;;;18.75;13.80;;;;;;;;;;627668;23;1240;-64
2022/10/23 00:46:22;;;;;;;8.85;5.85;;;;;;;;;;630959;23;905;-65
2022/10/23 00:47:30;;;;;;;8.57;3.70;;;;;;;;;;630863;23;1390;-65
2022/10/23 00:48:39;;;;;;;13.70;5.70;;;;;;;;;;627645;23;1232;-65
2022/10/23 00:49:48;;;;;;;12.85;4.25;;;;;;;;;;627722;23;813;-65
2022/10/23 00:50:56;;;;;;;10.98;4.03;;;;;;;;;;630740;23;1462;-65
2022/10/23 00:52:05;;;;;;;11.13;4.00;;;;;;;;;;624122;23;1513;-65
2022/10/23 00:53:14;;;;;;;12.18;4.28;;;;;;;;;;627662;23;1351;-65
2022/10/23 00:54:24;;;;;;;9.88;3.85;;;;;;;;;;630391;23;946;-66
2022/10/23 00:55:34;;;;;;;11.20;3.72;;;;;;;;;;631131;23;902;-66
2022/10/23 00:56:43;;;;;;;9.73;4.55;;;;;;;;;;629886;23;2005;-66
2022/10/23 00:57:53;;;;;;;8.68;3.92;;;;;;;;;;627958;23;1279;-67
2022/10/23 00:59:01;;;;;;;9.73;3.78;;;;;;;;;;630361;23;1098;-66
2022/10/23 01:00:28;;;;;;;9.52;3.67;;;;;;;;;;626212;23;1354;-67
2022/10/23 01:01:36;;;;;;;9.18;4.07;;;;;;;;;;627552;23;1363;-66
2022/10/23 01:02:44;;;;;;;11.60;3.60;;;;;;;;;;627517;23;1300;-66
2022/10/23 01:03:52;;;;;;;8.18;3.40;;;;;;;;;;627133;23;1304;-66
2022/10/23 01:05:00;;;;;;;12.45;3.47;;;;;;;;;;626224;23;843;-67
2022/10/23 01:06:25;;;;;;;38.80;21.83;;;;;;;;;;624871;23;1252;-66
2022/10/23 01:08:02;;;;;;;38.35;22.17;;;;;;;;;;624044;23;1383;-66
2022/10/23 01:09:17;;;;;;;41.50;22.77;;;;;;;;;;622321;23;1209;-66
2022/10/23 01:10:44;;;;;;;26.55;10.88;;;;;;;;;;627730;23;1280;-66
2022/10/23 01:12:15;;;;;;;21.88;4.35;;;;;;;;;;628337;23;1229;-66
2022/10/23 01:13:41;;;;;;;15.93;3.55;;;;;;;;;;629603;23;1256;-66
2022/10/23 01:15:01;;;;;;;21.55;4.68;;;;;;;;;;630852;23;1337;-66
2022/10/23 01:16:32;;;;;;;34.25;7.85;;;;;;;;;;630829;23;1237;-66
2022/10/23 01:17:53;;;;;;;22.02;6.45;;;;;;;;;;630934;23;1089;-67
2022/10/23 01:19:10;;;;;;;32.72;5.13;;;;;;;;;;626594;23;1901;-67
2022/10/23 01:20:18;;;;;;;15.00;5.00;;;;;;;;;;627720;23;952;-67
2022/10/23 01:21:37;;;;;;;9.35;5.35;;;;;;;;;;627959;23;1299;-66
2022/10/23 01:22:54;;;;;;;11.23;3.95;;;;;;;;;;627324;23;1249;-66
2022/10/23 01:24:18;;;;;;;13.57;3.95;;;;;;;;;;626866;23;1671;-66
2022/10/23 01:25:47;;;;;;;16.08;4.20;;;;;;;;;;627330;23;1427;-66
2022/10/23 01:27:13;;;;;;;5.90;4.03;;;;;;;;;;631209;23;980;-66
2022/10/23 01:28:35;;;;;;;15.87;3.90;;;;;;;;;;630632;23;1855;-66
2022/10/23 01:30:00;;;;;;;10.30;3.45;;;;;;;;;;628823;23;896;-65
2022/10/23 01:31:10;;;;;;;21.88;3.55;;;;;;;;;;627589;23;1145;-66
2022/10/23 01:32:41;;;;;;;7.35;3.50;;;;;;;;;;628090;23;1386;-65
2022/10/23 01:34:13;;;;;;;10.82;4.00;;;;;;;;;;627005;23;1275;-66
2022/10/23 01:35:46;;;;;;;18.70;3.53;;;;;;;;;;627787;23;1324;-65
2022/10/23 01:37:00;;;;;;;6.88;3.95;;;;;;;;;;628118;23;1288;-66
2022/10/23 01:38:18;;;;;;;9.43;4.80;;;;;;;;;;630622;23;886;-65
2022/10/23 01:39:35;;;;;;;16.05;6.30;;;;;;;;;;630518;23;1995;-65
2022/10/23 01:40:45;;;;;;;7.85;5.03;;;;;;;;;;627422;23;1422;-66
2022/10/23 01:42:16;;;;;;;7.80;4.78;;;;;;;;;;627923;23;1462;-65
2022/10/23 01:43:40;;;;;;;10.30;4.05;;;;;;;;;;627462;23;1324;-65
2022/10/23 01:45:07;;;;;;;13.85;3.92;;;;;;;;;;628041;23;1224;-66
2022/10/23 01:46:26;;;;;;;10.80;4.00;;;;;;;;;;627643;23;1419;-66
2022/10/23 01:47:35;;;;;;;18.05;3.40;;;;;;;;;;630774;23;935;-65
2022/10/23 01:48:48;;;;;;;13.52;3.83;;;;;;;;;;630946;23;1268;-66
2022/10/23 01:49:59;;;;;;;12.30;3.58;;;;;;;;;;628183;23;1415;-66
2022/10/23 01:51:10;;;;;;;5.97;3.42;;;;;;;;;;627648;23;1383;-65
2022/10/23 01:52:20;;;;;;;5.68;3.15;;;;;;;;;;627595;23;1323;-66
2022/10/23 01:53:30;;;;;;;12.57;3.50;;;;;;;;;;628158;23;1355;-66
2022/10/23 01:54:41;;;;;;;11.25;3.60;;;;;;;;;;627889;23;1268;-66
2022/10/23 01:55:51;;;;;;;5.88;3.10;;;;;;;;;;630803;23;1367;-66
2022/10/23 01:57:03;;;;;;;5.25;3.10;;;;;;;;;;631745;23;1364;-66
2022/10/23 01:58:14;;;;;;;6.57;2.90;;;;;;;;;;631252;23;1367;-66
2022/10/23 01:59:34;;;;;;;9.25;3.08;;;;;;;;;;630935;23;1055;-66
2022/10/23 02:00:44;;;;;;;5.20;2.90;;;;;;;;;;627627;23;1458;-66
2022/10/23 02:01:55;;;;;;;19.60;3.30;;;;;;;;;;626528;23;1142;-66
2022/10/23 02:03:05;;;;;;;8.93;3.22;;;;;;;;;;628150;23;1467;-66
2022/10/23 02:04:18;;;;;;;8.57;3.00;;;;;;;;;;628298;23;1385;-66
2022/10/23 02:05:29;;;;;;;5.55;2.92;;;;;;;;;;627168;23;1295;-66
2022/10/23 02:06:37;;;;;;;4.75;3.00;;;;;;;;;;627741;23;1244;-66
2022/10/23 02:07:45;;;;;;;14.10;3.60;;;;;;;;;;627334;23;1033;-66
2022/10/23 02:08:53;;;;;;;7.25;3.00;;;;;;;;;;628141;23;1287;-66
2022/10/23 02:10:03;;;;;;;4.95;2.40;;;;;;;;;;624759;23;1228;-66
2022/10/23 02:11:13;;;;;;;3.83;2.28;;;;;;;;;;627287;23;1355;-66
2022/10/23 02:12:37;;;;;;;8.32;2.63;;;;;;;;;;624839;23;1446;-66
2022/10/23 02:14:00;;;;;;;7.43;2.60;;;;;;;;;;631008;23;897;-66
2022/10/23 02:15:24;;;;;;;9.82;3.00;;;;;;;;;;631381;23;1267;-67
2022/10/23 02:16:42;;;;;;;7.63;3.00;;;;;;;;;;627696;23;1248;-68
2022/10/23 02:18:02;;;;;;;2.60;2.40;;;;;;;;;;627248;23;1350;-66
2022/10/23 02:19:32;;;;;;;4.57;2.40;;;;;;;;;;631280;23;935;-66
2022/10/23 02:21:08;;;;;;;5.20;2.20;;;;;;;;;;631010;23;924;-65
2022/10/23 02:22:24;;;;;;;13.23;2.92;;;;;;;;;;627885;23;1248;-66
2022/10/23 02:23:33;;;;;;;7.13;2.65;;;;;;;;;;631306;23;1300;-66
2022/10/23 02:24:50;;;;;;;18.45;2.75;;;;;;;;;;631034;23;1409;-66
2022/10/23 02:26:14;;;;;;;4.38;2.40;;;;;;;;;;627707;23;1236;-66
2022/10/23 02:27:44;;;;;;;3.40;2.40;;;;;;;;;;626992;23;1260;-66
2022/10/23 02:28:56;;;;;;;4.15;2.47;;;;;;;;;;627767;23;1582;-66
2022/10/23 02:30:08;;;;;;;7.53;2.50;;;;;;;;;;627456;23;1534;-66
2022/10/23 02:31:17;;;;;;;4.50;2.30;;;;;;;;;;630447;23;1019;-66
2022/10/23 02:32:26;;;;;;;12.43;2.60;;;;;;;;;;631187;23;1365;-66
2022/10/23 02:33:38;;;;;;;8.13;2.83;;;;;;;;;;630864;23;823;-66
2022/10/23 02:34:46;;;;;;;23.80;3.22;;;;;;;;;;631294;23;1287;-66
2022/10/23 02:35:54;;;;;;;11.25;2.88;;;;;;;;;;627766;23;1513;-66
2022/10/23 02:37:03;;;;;;;12.98;3.08;;;;;;;;;;627898;23;1236;-66
2022/10/23 02:38:28;;;;;;;18.15;3.25;;;;;;;;;;630266;23;944;-66
2022/10/23 02:39:36;;;;;;;7.38;2.90;;;;;;;;;;630861;23;1275;-66
2022/10/23 02:40:45;;;;;;;25.55;3.20;;;;;;;;;;627773;23;1309;-66
2022/10/23 02:42:13;;;;;;;20.90;3.30;;;;;;;;;;628285;23;1336;-66
2022/10/23 02:43:30;;;;;;;10.98;3.30;;;;;;;;;;630467;23;1125;-66
2022/10/23 02:45:03;;;;;;;15.52;3.10;;;;;;;;;;628252;23;1009;-66
2022/10/23 02:46:24;;;;;;;4.68;2.80;;;;;;;;;;627393;23;1433;-66
2022/10/23 02:47:50;;;;;;;10.07;2.72;;;;;;;;;;630401;23;1034;-66
2022/10/23 02:49:23;;;;;;;7.57;2.47;;;;;;;;;;627296;23;936;-66
2022/10/23 02:50:50;;;;;;;4.20;2.30;;;;;;;;;;627481;23;1351;-66
2022/10/23 02:52:15;;;;;;;4.00;2.20;;;;;;;;;;627868;23;1343;-66
2022/10/23 02:53:34;;;;;;;4.72;2.35;;;;;;;;;;631042;23;1323;-66
2022/10/23 02:55:05;;;;;;;3.30;2.22;;;;;;;;;;634406;23;1400;-66
2022/10/23 02:56:23;;;;;;;6.20;2.67;;;;;;;;;;627154;23;1481;-66
2022/10/23 02:57:59;;;;;;;8.15;2.60;;;;;;;;;;631068;23;1077;-67
2022/10/23 02:59:29;;;;;;;5.43;2.83;;;;;;;;;;630787;23;1342;-66
2022/10/23 03:00:55;;;;;;;4.72;2.38;;;;;;;;;;626934;23;1991;-66
2022/10/23 03:02:13;;;;;;;4.63;2.13;;;;;;;;;;625182;23;1232;-66
2022/10/23 03:03:34;;;;;;;5.05;2.40;;;;;;;;;;627591;23;1261;-66
2022/10/23 03:04:47;;;;;;;4.18;2.20;;;;;;;;;;628040;23;1364;-66
2022/10/23 03:05:57;;;;;;;4.53;2.28;;;;;;;;;;630211;23;910;-66
2022/10/23 03:07:09;;;;;;;2.70;2.10;;;;;;;;;;631140;23;1009;-66
2022/10/23 03:08:17;;;;;;;4.00;2.20;;;;;;;;;;624867;23;1368;-66
2022/10/23 03:09:45;;;;;;;5.88;2.30;;;;;;;;;;630831;23;1309;-66
2022/10/23 03:10:53;;;;;;;6.50;2.40;;;;;;;;;;631549;23;1392;-66
2022/10/23 03:12:00;;;;;;;4.80;2.53;;;;;;;;;;631336;23;839;-66
2022/10/23 03:13:09;;;;;;;3.67;2.47;;;;;;;;;;631403;23;1053;-66
2022/10/23 03:14:18;;;;;;;6.30;2.55;;;;;;;;;;630217;23;1263;-67
2022/10/23 03:15:26;;;;;;;6.10;2.70;;;;;;;;;;631184;23;1021;-66
2022/10/23 03:16:34;;;;;;;5.43;2.60;;;;;;;;;;630472;23;1315;-66
2022/10/23 03:17:42;;;;;;;4.00;2.72;;;;;;;;;;630824;23;1045;-66
2022/10/23 03:18:50;;;;;;;3.80;2.63;;;;;;;;;;631237;23;1165;-66
2022/10/23 03:19:58;;;;;;;3.85;2.40;;;;;;;;;;630878;23;1307;-66
2022/10/23 03:21:06;;;;;;;2.70;2.40;;;;;;;;;;631222;23;1909;-66
2022/10/23 03:22:14;;;;;;;4.50;2.40;;;;;;;;;;627712;23;1276;-66
2022/10/23 03:23:22;;;;;;;3.65;2.13;;;;;;;;;;624986;23;1320;-66
2022/10/23 03:24:29;;;;;;;3.72;2.50;;;;;;;;;;627277;23;851;-66
2022/10/23 03:25:37;;;;;;;7.82;2.80;;;;;;;;;;633303;23;1297;-66
2022/10/23 03:26:46;;;;;;;13.35;3.00;;;;;;;;;;630262;23;1458;-66
2022/10/23 03:27:54;;;;;;;7.18;2.97;;;;;;;;;;628277;23;1240;-66
2022/10/23 03:29:01;;;;;;;5.38;2.97;;;;;;;;;;627601;23;1402;-66
2022/10/23 03:30:09;;;;;;;10.23;3.00;;;;;;;;;;630576;23;1451;-66
2022/10/23 03:31:17;;;;;;;8.43;3.38;;;;;;;;;;629997;23;1350;-66
2022/10/23 03:32:25;;;;;;;9.77;3.40;;;;;;;;;;628311;23;1197;-66
2022/10/23 03:33:33;;;;;;;10.15;3.33;;;;;;;;;;630823;23;927;-66
2022/10/23 03:34:41;;;;;;;6.75;3.17;;;;;;;;;;631204;23;1330;-66
2022/10/23 03:35:49;;;;;;;11.85;3.55;;;;;;;;;;627795;23;1355;-65
2022/10/23 03:36:57;;;;;;;5.95;3.10;;;;;;;;;;630674;23;1362;-66
2022/10/23 03:38:05;;;;;;;12.20;3.40;;;;;;;;;;633811;23;1074;-66
2022/10/23 03:39:13;;;;;;;11.20;3.50;;;;;;;;;;631448;23;1334;-66
2022/10/23 03:40:21;;;;;;;9.95;3.40;;;;;;;;;;627937;23;1302;-66
2022/10/23 03:41:29;;;;;;;7.32;3.20;;;;;;;;;;631026;23;1944;-66
2022/10/23 03:42:37;;;;;;;7.20;3.28;;;;;;;;;;630027;23;1223;-66
2022/10/23 03:43:45;;;;;;;6.20;3.00;;;;;;;;;;624650;23;1253;-66
2022/10/23 03:44:52;;;;;;;4.10;2.97;;;;;;;;;;631134;23;1026;-66
2022/10/23 03:46:01;;;;;;;4.88;3.13;;;;;;;;;;633660;23;1433;-66
2022/10/23 03:47:10;;;;;;;3.05;2.70;;;;;;;;;;627771;23;1362;-67
2022/10/23 03:48:18;;;;;;;4.53;2.75;;;;;;;;;;628019;23;968;-65
2022/10/23 03:49:26;;;;;;;4.10;3.10;;;;;;;;;;630819;23;1268;-64
2022/10/23 03:50:34;;;;;;;3.22;2.90;;;;;;;;;;627615;23;1383;-66
2022/10/23 03:51:43;;;;;;;5.30;3.10;;;;;;;;;;630244;23;1018;-66
2022/10/23 03:52:51;;;;;;;4.68;3.15;;;;;;;;;;631678;23;887;-67
2022/10/23 03:53:59;;;;;;;3.85;2.70;;;;;;;;;;630799;23;812;-67
2022/10/23 03:55:07;;;;;;;4.10;3.08;;;;;;;;;;631238;23;1603;-65
2022/10/23 03:56:15;;;;;;;3.03;2.65;;;;;;;;;;626643;23;936;-65
2022/10/23 03:57:23;;;;;;;4.13;3.03;;;;;;;;;;631495;23;1623;-65
2022/10/23 03:58:31;;;;;;;5.03;3.00;;;;;;;;;;633970;23;1204;-65
2022/10/23 03:59:39;;;;;;;4.85;3.10;;;;;;;;;;633780;23;1064;-65
2022/10/23 04:00:46;;;;;;;3.80;3.10;;;;;;;;;;630896;23;1260;-66
2022/10/23 04:01:54;;;;;;;5.20;3.10;;;;;;;;;;627470;23;1478;-66
2022/10/23 04:03:02;;;;;;;4.53;3.10;;;;;;;;;;631096;23;824;-66
2022/10/23 04:04:10;;;;;;;5.50;3.30;;;;;;;;;;634180;23;1434;-66
2022/10/23 04:05:18;;;;;;;4.82;3.03;;;;;;;;;;633556;23;1061;-66
2022/10/23 04:06:26;;;;;;;5.65;3.20;;;;;;;;;;631687;23;934;-66
2022/10/23 04:07:34;;;;;;;4.72;3.10;;;;;;;;;;630469;23;1251;-66
2022/10/23 04:08:42;;;;;;;3.85;3.17;;;;;;;;;;631181;23;1017;-66
2022/10/23 04:09:50;;;;;;;5.30;2.85;;;;;;;;;;631311;23;894;-66
2022/10/23 04:10:58;;;;;;;4.78;3.03;;;;;;;;;;630941;23;1086;-66
2022/10/23 04:12:06;;;;;;;5.18;3.03;;;;;;;;;;628341;23;1263;-66
2022/10/23 04:13:14;;;;;;;3.30;2.70;;;;;;;;;;631252;23;1255;-66
2022/10/23 04:14:22;;;;;;;5.60;3.03;;;;;;;;;;628222;23;1280;-66
2022/10/23 04:15:30;;;;;;;3.60;2.70;;;;;;;;;;630172;23;1348;-66
2022/10/23 04:16:41;;;;;;;5.72;3.20;;;;;;;;;;630545;23;1354;-65
2022/10/23 04:17:49;;;;;;;5.90;3.22;;;;;;;;;;627609;23;1417;-66
2022/10/23 04:18:57;;;;;;;5.15;3.08;;;;;;;;;;630345;23;780;-66
2022/10/23 04:20:05;;;;;;;7.75;4.50;;;;;;;;;;633260;23;1145;-66
2022/10/23 04:21:13;;;;;;;5.45;3.80;;;;;;;;;;630252;23;1308;-66
2022/10/23 04:22:21;;;;;;;6.35;3.33;;;;;;;;;;624811;23;1411;-65
2022/10/23 04:23:28;;;;;;;3.90;3.03;;;;;;;;;;627911;23;917;-66
2022/10/23 04:24:36;;;;;;;5.25;3.17;;;;;;;;;;630940;23;1438;-65
2022/10/23 04:25:44;;;;;;;4.47;2.90;;;;;;;;;;627699;23;1291;-65
2022/10/23 04:26:52;;;;;;;4.82;2.97;;;;;;;;;;630308;23;1296;-65
2022/10/23 04:28:00;;;;;;;3.78;3.20;;;;;;;;;;629667;23;1423;-66
2022/10/23 04:29:08;;;;;;;4.70;3.20;;;;;;;;;;627608;23;886;-66
2022/10/23 04:30:16;;;;;;;5.88;3.47;;;;;;;;;;628105;23;925;-65
2022/10/23 04:31:24;;;;;;;7.57;3.40;;;;;;;;;;630794;23;830;-66
2022/10/23 04:32:32;;;;;;;7.28;3.60;;;;;;;;;;630448;23;1351;-66
2022/10/23 04:33:42;;;;;;;7.40;3.25;;;;;;;;;;630071;23;756;-66
2022/10/23 04:34:50;;;;;;;7.53;3.50;;;;;;;;;;630858;23;1376;-65
2022/10/23 04:35:58;;;;;;;8.27;3.28;;;;;;;;;;629853;23;1383;-65
2022/10/23 04:37:06;;;;;;;5.80;3.38;;;;;;;;;;627932;23;991;-66
2022/10/23 04:38:14;;;;;;;6.80;3.08;;;;;;;;;;630969;23;798;-65
2022/10/23 04:39:21;;;;;;;4.40;2.90;;;;;;;;;;634014;23;1350;-66
2022/10/23 04:40:29;;;;;;;3.17;2.70;;;;;;;;;;633700;23;934;-65
2022/10/23 04:41:37;;;;;;;4.78;3.10;;;;;;;;;;630288;23;1603;-65
2022/10/23 04:42:45;;;;;;;5.25;3.10;;;;;;;;;;628063;23;832;-66
2022/10/23 04:43:53;;;;;;;3.72;3.28;;;;;;;;;;627395;23;1257;-65
2022/10/23 04:45:01;;;;;;;4.68;3.08;;;;;;;;;;628136;23;1407;-66
2022/10/23 04:46:09;;;;;;;5.55;3.55;;;;;;;;;;627422;23;1236;-65
2022/10/23 04:47:17;;;;;;;6.40;3.58;;;;;;;;;;627847;23;1030;-66
2022/10/23 04:48:25;;;;;;;4.75;3.60;;;;;;;;;;628221;23;1396;-66
2022/10/23 04:49:32;;;;;;;7.75;3.90;;;;;;;;;;628385;23;1395;-65
2022/10/23 04:50:40;;;;;;;6.28;3.78;;;;;;;;;;628554;23;1252;-66
2022/10/23 04:51:52;;;;;;;9.50;3.92;;;;;;;;;;626585;23;1272;-65
2022/10/23 04:53:00;;;;;;;7.13;3.65;;;;;;;;;;631471;23;1387;-65
2022/10/23 04:54:08;;;;;;;7.65;3.80;;;;;;;;;;627957;23;923;-65
2022/10/23 04:55:16;;;;;;;5.40;4.00;;;;;;;;;;628023;23;2087;-64
2022/10/23 04:56:24;;;;;;;7.43;4.43;;;;;;;;;;627248;23;1391;-64
2022/10/23 04:57:32;;;;;;;5.78;4.15;;;;;;;;;;630840;23;1121;-66
2022/10/23 04:58:40;;;;;;;9.07;4.32;;;;;;;;;;631304;23;1263;-65
2022/10/23 04:59:48;;;;;;;11.23;4.15;;;;;;;;;;627624;23;1208;-65
2022/10/23 05:00:58;;;;;;;9.95;3.80;;;;;;;;;;627258;23;1161;-65
2022/10/23 05:02:05;;;;;;;10.43;4.22;;;;;;;;;;627850;23;1318;-65
2022/10/23 05:03:15;;;;;;;11.73;4.20;;;;;;;;;;628354;23;1299;-65
2022/10/23 05:04:23;;;;;;;20.08;4.30;;;;;;;;;;624967;23;1110;-65
2022/10/23 05:05:31;;;;;;;15.90;4.50;;;;;;;;;;627949;23;1532;-65
2022/10/23 05:06:38;;;;;;;28.10;4.40;;;;;;;;;;627736;23;1360;-65
2022/10/23 05:07:46;;;;;;;38.22;4.88;;;;;;;;;;627251;23;1363;-65
2022/10/23 05:08:55;;;;;;;48.92;5.15;;;;;;;;;;631059;23;1000;-65
2022/10/23 05:10:03;;;;;;;50.85;5.10;;;;;;;;;;633509;23;928;-65
2022/10/23 05:11:11;;;;;;;72.60;5.68;;;;;;;;;;634498;23;762;-65
2022/10/23 05:12:19;;;;;;;84.97;6.10;;;;;;;;;;631573;23;1534;-65
2022/10/23 05:13:27;;;;;;;73.72;6.25;;;;;;;;;;624892;23;1279;-65
2022/10/23 05:14:35;;;;;;;23.65;4.88;;;;;;;;;;625284;23;1360;-65
2022/10/23 05:15:43;;;;;;;37.13;5.90;;;;;;;;;;630457;23;1260;-65
2022/10/23 05:16:54;;;;;;;14.30;5.25;;;;;;;;;;631697;23;1279;-65
2022/10/23 05:18:14;;;;;;;5.50;5.00;;;;;;;;;;630622;23;1228;-64
2022/10/23 05:19:26;;;;;;;8.77;5.57;;;;;;;;;;631031;23;1245;-65
2022/10/23 05:20:38;;;;;;;9.60;5.80;;;;;;;;;;627667;23;1477;-65
2022/10/23 05:21:54;;;;;;;15.50;6.00;;;;;;;;;;630137;23;933;-65
2022/10/23 05:23:05;;;;;;;12.13;5.63;;;;;;;;;;630740;23;1524;-65
2022/10/23 05:24:14;;;;;;;13.48;5.43;;;;;;;;;;628258;23;1371;-65
2022/10/23 05:25:22;;;;;;;8.40;5.35;;;;;;;;;;628025;23;1333;-65
2022/10/23 05:26:31;;;;;;;7.80;5.47;;;;;;;;;;628171;23;1374;-65
2022/10/23 05:27:38;;;;;;;10.02;5.50;;;;;;;;;;627598;23;1377;-65
2022/10/23 05:28:46;;;;;;;5.93;4.95;;;;;;;;;;631322;23;1021;-65
2022/10/23 05:29:54;;;;;;;6.35;5.35;;;;;;;;;;631011;23;1248;-65
2022/10/23 05:31:04;;;;;;;6.00;5.40;;;;;;;;;;627628;23;902;-65
2022/10/23 05:32:13;;;;;;;7.00;5.60;;;;;;;;;;631307;23;902;-65
2022/10/23 05:33:22;;;;;;;6.50;5.90;;;;;;;;;;630704;23;1259;-65
2022/10/23 05:34:31;;;;;;;6.38;5.70;;;;;;;;;;627501;23;1214;-65
2022/10/23 05:35:40;;;;;;;6.63;5.47;;;;;;;;;;627482;23;1148;-65
2022/10/23 05:36:49;;;;;;;5.95;5.35;;;;;;;;;;627985;23;1386;-65
2022/10/23 05:38:00;;;;;;;5.80;5.20;;;;;;;;;;624541;23;1343;-65
2022/10/23 05:39:09;;;;;;;7.10;5.50;;;;;;;;;;628068;23;1025;-65
2022/10/23 05:40:16;;;;;;;6.05;5.45;;;;;;;;;;629788;23;1379;-65
2022/10/23 05:41:24;;;;;;;8.48;5.68;;;;;;;;;;628032;23;1238;-65
2022/10/23 05:42:32;;;;;;;6.15;5.55;;;;;;;;;;627199;23;1276;-64
2022/10/23 05:43:40;;;;;;;7.88;5.70;;;;;;;;;;628363;23;1983;-65
2022/10/23 05:44:48;;;;;;;9.02;5.25;;;;;;;;;;628305;23;1438;-64
2022/10/23 05:45:57;;;;;;;6.68;5.63;;;;;;;;;;623695;23;1283;-65
2022/10/23 05:47:05;;;;;;;6.72;5.30;;;;;;;;;;627651;23;1331;-65
2022/10/23 05:48:14;;;;;;;6.10;5.22;;;;;;;;;;626455;23;1244;-65
2022/10/23 05:49:25;;;;;;;7.30;5.25;;;;;;;;;;630762;23;941;-65
2022/10/23 05:50:37;;;;;;;7.45;5.05;;;;;;;;;;629959;23;1504;-65
2022/10/23 05:51:44;;;;;;;6.45;5.40;;;;;;;;;;627496;23;1344;-65
2022/10/23 05:52:52;;;;;;;5.85;5.03;;;;;;;;;;627499;23;1367;-65
2022/10/23 05:54:06;;;;;;;6.03;5.10;;;;;;;;;;630402;23;1038;-65
2022/10/23 05:55:15;;;;;;;6.25;5.40;;;;;;;;;;627754;23;1374;-65
2022/10/23 05:56:22;;;;;;;6.00;5.10;;;;;;;;;;624241;23;1436;-65
2022/10/23 05:57:31;;;;;;;5.72;5.07;;;;;;;;;;627126;23;1411;-65
2022/10/23 05:58:39;;;;;;;8.18;5.50;;;;;;;;;;627504;23;1360;-65
2022/10/23 05:59:47;;;;;;;6.43;5.40;;;;;;;;;;626958;23;1407;-65
2022/10/23 06:00:55;;;;;;;6.32;5.07;;;;;;;;;;627297;23;1493;-65
2022/10/23 06:02:04;;;;;;;6.28;4.70;;;;;;;;;;626870;23;1276;-64
2022/10/23 06:03:12;;;;;;;7.47;5.22;;;;;;;;;;630314;23;959;-65
2022/10/23 06:04:20;;;;;;;5.97;4.60;;;;;;;;;;632412;23;1370;-65
2022/10/23 06:05:28;;;;;;;6.88;5.15;;;;;;;;;;629619;23;1402;-65
2022/10/23 06:06:40;;;;;;;5.60;5.00;;;;;;;;;;627315;23;1368;-65
2022/10/23 06:07:48;;;;;;;7.50;5.03;;;;;;;;;;627563;23;1354;-65
2022/10/23 06:08:56;;;;;;;6.55;5.18;;;;;;;;;;629916;23;887;-65
2022/10/23 06:10:05;;;;;;;5.20;4.70;;;;;;;;;;630142;23;977;-64
2022/10/23 06:11:13;;;;;;;6.65;4.72;;;;;;;;;;627240;23;1257;-65
2022/10/23 06:12:21;;;;;;;5.20;4.70;;;;;;;;;;627148;23;1260;-65
2022/10/23 06:13:29;;;;;;;5.63;4.85;;;;;;;;;;629051;23;827;-65
2022/10/23 06:14:38;;;;;;;6.68;4.78;;;;;;;;;;630287;23;1397;-65
2022/10/23 06:15:45;;;;;;;5.75;4.70;;;;;;;;;;630074;23;882;-65
2022/10/23 06:16:59;;;;;;;5.10;4.60;;;;;;;;;;630573;23;1069;-65
2022/10/23 06:18:07;;;;;;;4.95;4.53;;;;;;;;;;627589;23;1445;-65
2022/10/23 06:19:15;;;;;;;6.57;4.50;;;;;;;;;;627165;23;1310;-65
2022/10/23 06:20:23;;;;;;;6.10;4.90;;;;;;;;;;626834;23;1260;-65
2022/10/23 06:21:34;;;;;;;5.05;4.45;;;;;;;;;;630146;23;890;-65
2022/10/23 06:22:42;;;;;;;4.90;4.20;;;;;;;;;;629749;23;991;-65
2022/10/23 06:23:50;;;;;;;5.10;4.60;;;;;;;;;;629645;23;856;-65
2022/10/23 06:24:58;;;;;;;5.65;4.57;;;;;;;;;;630443;23;1308;-65
2022/10/23 06:26:08;;;;;;;4.90;4.40;;;;;;;;;;630470;23;1220;-65
2022/10/23 06:27:16;;;;;;;5.43;4.80;;;;;;;;;;627247;23;872;-65
2022/10/23 06:28:24;;;;;;;6.00;4.60;;;;;;;;;;627255;23;1378;-65
2022/10/23 06:29:32;;;;;;;6.43;4.50;;;;;;;;;;630095;23;1378;-65
2022/10/23 06:30:39;;;;;;;6.20;4.90;;;;;;;;;;630248;23;1505;-64
2022/10/23 06:31:47;;;;;;;5.03;4.45;;;;;;;;;;630828;23;872;-65
2022/10/23 06:32:55;;;;;;;5.20;4.30;;;;;;;;;;630919;23;839;-65
2022/10/23 06:34:04;;;;;;;5.18;4.60;;;;;;;;;;629989;23;1406;-65
2022/10/23 06:35:12;;;;;;;4.68;4.22;;;;;;;;;;627688;23;1240;-65
2022/10/23 06:36:20;;;;;;;5.30;4.45;;;;;;;;;;629713;23;1323;-65
2022/10/23 06:37:28;;;;;;;4.93;4.43;;;;;;;;;;629391;23;1530;-65
2022/10/23 06:38:39;;;;;;;6.55;4.30;;;;;;;;;;627482;23;1212;-65
2022/10/23 06:39:46;;;;;;;6.70;4.30;;;;;;;;;;627079;23;1383;-65
2022/10/23 06:40:55;;;;;;;4.60;4.20;;;;;;;;;;630531;23;918;-65
2022/10/23 06:42:04;;;;;;;4.80;4.38;;;;;;;;;;630729;23;1216;-65
2022/10/23 06:43:12;;;;;;;6.63;4.20;;;;;;;;;;630724;23;908;-65
2022/10/23 06:44:20;;;;;;;4.90;4.32;;;;;;;;;;630788;23;856;-65
2022/10/23 06:45:32;;;;;;;4.43;4.03;;;;;;;;;;629817;23;836;-65
2022/10/23 06:46:41;;;;;;;4.57;4.15;;;;;;;;;;633627;23;847;-65
2022/10/23 06:47:49;;;;;;;4.40;4.00;;;;;;;;;;630336;23;1245;-65
2022/10/23 06:48:57;;;;;;;5.05;3.97;;;;;;;;;;627289;23;1264;-65
2022/10/23 06:50:06;;;;;;;4.28;3.88;;;;;;;;;;630016;23;1275;-64
2022/10/23 06:51:16;;;;;;;4.35;3.90;;;;;;;;;;630043;23;1336;-65
2022/10/23 06:52:23;;;;;;;4.38;3.97;;;;;;;;;;626861;23;1410;-65
2022/10/23 06:53:32;;;;;;;4.68;4.15;;;;;;;;;;627586;23;1280;-65
2022/10/23 06:54:39;;;;;;;5.38;4.32;;;;;;;;;;627619;23;1971;-65
2022/10/23 06:55:47;;;;;;;4.60;4.20;;;;;;;;;;630066;23;1017;-65
2022/10/23 06:56:56;;;;;;;4.10;3.70;;;;;;;;;;627820;23;1232;-65
2022/10/23 06:58:09;;;;;;;4.30;3.90;;;;;;;;;;629720;23;916;-65
2022/10/23 06:59:18;;;;;;;4.80;3.88;;;;;;;;;;631038;23;1315;-66
2022/10/23 07:00:26;;;;;;;4.22;3.80;;;;;;;;;;627219;23;1280;-65
2022/10/23 07:01:34;;;;;;;3.70;3.22;;;;;;;;;;627328;23;1652;-65
2022/10/23 07:02:42;;;;;;;3.75;3.38;;;;;;;;;;626592;23;817;-65
2022/10/23 07:03:50;;;;;;;3.58;3.28;;;;;;;;;;627445;23;1260;-65
2022/10/23 07:04:58;;;;;;;3.80;3.10;;;;;;;;;;627691;23;1906;-65
2022/10/23 07:06:06;;;;;;;3.50;3.20;;;;;;;;;;627441;23;1379;-65
2022/10/23 07:07:14;;;;;;;3.55;3.25;;;;;;;;;;627559;23;1368;-65
2022/10/23 07:08:22;;;;;;;3.20;2.90;;;;;;;;;;626392;23;1218;-66
2022/10/23 07:09:30;;;;;;;3.40;3.10;;;;;;;;;;630291;23;827;-65
2022/10/23 07:10:41;;;;;;;4.68;3.28;;;;;;;;;;631045;23;987;-65
2022/10/23 07:11:49;;;;;;;3.50;3.20;;;;;;;;;;630617;23;835;-65
2022/10/23 07:12:59;;;;;;;4.00;3.00;;;;;;;;;;630725;23;1385;-65
2022/10/23 07:14:07;;;;;;;3.10;2.90;;;;;;;;;;630392;23;827;-65
2022/10/23 07:15:15;;;;;;;3.25;2.95;;;;;;;;;;626129;23;1209;-65
2022/10/23 07:16:23;;;;;;;3.80;3.50;;;;;;;;;;626108;23;1283;-65
2022/10/23 07:17:31;;;;;;;3.65;3.22;;;;;;;;;;633641;23;808;-65
2022/10/23 07:18:39;;;;;;;3.78;3.47;;;;;;;;;;630937;23;1195;-65
2022/10/23 07:19:48;;;;;;;3.30;2.90;;;;;;;;;;629603;23;867;-65